sensor_id;sensor_type;location;lat;lon;timestamp;temperature;humidity
1181;DHT22;579;52.046;8.532;2023-03-14T00:01:11;12.60;1.00
1181;DHT22;579;52.046;8.532;2023-03-14T00:08:40;12.60;1.00
1181;DHT22;579;52.046;8.532;2023-03-14T00:11:07;12.60;1.00
1181;DHT22;579;52.046;8.532;2023-03-14T00:13:35;13.30;1.00
1181;DHT22;579;52.046;8.532;2023-03-14T00:16:03;12.70;1.00
1181;DHT22;579;52.046;8.532;2023-03-14T00:18:30;12.80;1.00
1181;DHT22;579;52.046;8.532;2023-03-14T00:20:57;12.70;1.00
1181;DHT22;579;52.046;8.532;2023-03-14T00:23:24;12.70;1.00
1181;DHT22;579;52.046;8.532;2023-03-14T00:25:51;12.80;1.00
1181;DHT22;579;52.046;8.532;2023-03-14T00:33:23;12.60;1.00
1181;DHT22;579;52.046;8.532;2023-03-14T00:35:53;12.60;1.00
1181;DHT22;579;52.046;8.532;2023-03-14T00:38:20;12.40;1.00
1181;DHT22;579;52.046;8.532;2023-03-14T00:40:47;12.40;1.00
1181;DHT22;579;52.046;8.532;2023-03-14T00:43:13;12.50;1.00
1181;DHT22;579;52.046;8.532;2023-03-14T00:45:39;12.40;1.00
1181;DHT22;579;52.046;8.532;2023-03-14T00:48:05;12.50;1.00
1181;DHT22;579;52.046;8.532;2023-03-14T00:55:37;12.40;1.00
1181;DHT22;579;52.046;8.532;2023-03-14T00:58:03;12.60;1.00
1181;DHT22;579;52.046;8.532;2023-03-14T01:00:30;12.70;1.00
1181;DHT22;579;52.046;8.532;2023-03-14T01:02:56;12.10;1.00
1181;DHT22;579;52.046;8.532;2023-03-14T01:05:22;12.60;1.00
1181;DHT22;579;52.046;8.532;2023-03-14T01:07:49;12.70;1.00
1181;DHT22;579;52.046;8.532;2023-03-14T01:10:15;12.70;1.00
1181;DHT22;579;52.046;8.532;2023-03-14T01:12:42;12.60;1.00
1181;DHT22;579;52.046;8.532;2023-03-14T01:18:05;12.80;1.00
1181;DHT22;579;52.046;8.532;2023-03-14T01:20:31;12.80;1.00
1181;DHT22;579;52.046;8.532;2023-03-14T01:22:57;12.70;1.00
1181;DHT22;579;52.046;8.532;2023-03-14T01:25:24;12.60;1.00
1181;DHT22;579;52.046;8.532;2023-03-14T01:27:50;12.70;1.00
1181;DHT22;579;52.046;8.532;2023-03-14T01:30:16;12.60;1.00
1181;DHT22;579;52.046;8.532;2023-03-14T01:32:42;12.60;1.00
1181;DHT22;579;52.046;8.532;2023-03-14T01:37:50;12.70;1.00
1181;DHT22;579;52.046;8.532;2023-03-14T01:40:16;12.70;1.00
1181;DHT22;579;52.046;8.532;2023-03-14T01:42:46;12.80;1.00
1181;DHT22;579;52.046;8.532;2023-03-14T01:46:06;12.60;1.00
1181;DHT22;579;52.046;8.532;2023-03-14T01:48:50;12.80;1.00
1181;DHT22;579;52.046;8.532;2023-03-14T01:51:37;12.60;1.00
1181;DHT22;579;52.046;8.532;2023-03-14T01:54:12;13.00;1.00
1181;DHT22;579;52.046;8.532;2023-03-14T02:03:11;12.00;1.00
1181;DHT22;579;52.046;8.532;2023-03-14T02:05:42;12.80;1.00
1181;DHT22;579;52.046;8.532;2023-03-14T02:08:10;12.90;1.00
1181;DHT22;579;52.046;8.532;2023-03-14T02:10:41;12.90;1.00
1181;DHT22;579;52.046;8.532;2023-03-14T02:13:10;12.60;1.00
1181;DHT22;579;52.046;8.532;2023-03-14T02:15:37;12.80;1.00
1181;DHT22;579;52.046;8.532;2023-03-14T02:18:04;12.80;1.00
1181;DHT22;579;52.046;8.532;2023-03-14T02:23:27;12.90;1.00
1181;DHT22;579;52.046;8.532;2023-03-14T02:26:01;12.90;1.00
1181;DHT22;579;52.046;8.532;2023-03-14T02:28:30;12.90;1.00
1181;DHT22;579;52.046;8.532;2023-03-14T02:30:56;12.50;1.00
1181;DHT22;579;52.046;8.532;2023-03-14T02:33:23;12.20;1.00
1181;DHT22;579;52.046;8.532;2023-03-14T02:35:52;11.50;1.00
1181;DHT22;579;52.046;8.532;2023-03-14T02:38:24;10.70;1.00
1181;DHT22;579;52.046;8.532;2023-03-14T02:47:41;9.70;1.00
1181;DHT22;579;52.046;8.532;2023-03-14T02:50:12;9.80;1.00
1181;DHT22;579;52.046;8.532;2023-03-14T02:52:40;9.80;1.00
1181;DHT22;579;52.046;8.532;2023-03-14T02:55:07;9.80;1.00
1181;DHT22;579;52.046;8.532;2023-03-14T02:57:34;9.80;1.00
1181;DHT22;579;52.046;8.532;2023-03-14T03:00:00;9.90;1.00
1181;DHT22;579;52.046;8.532;2023-03-14T03:02:29;9.80;1.00
1181;DHT22;579;52.046;8.532;2023-03-14T03:10:00;9.80;1.00
1181;DHT22;579;52.046;8.532;2023-03-14T03:12:26;9.50;1.00
1181;DHT22;579;52.046;8.532;2023-03-14T03:14:52;9.50;1.00
1181;DHT22;579;52.046;8.532;2023-03-14T03:17:19;9.40;1.00
1181;DHT22;579;52.046;8.532;2023-03-14T03:19:45;9.40;1.00
1181;DHT22;579;52.046;8.532;2023-03-14T03:22:11;9.50;1.00
1181;DHT22;579;52.046;8.532;2023-03-14T03:24:37;9.50;1.00
1181;DHT22;579;52.046;8.532;2023-03-14T03:31:13;9.50;1.00
1181;DHT22;579;52.046;8.532;2023-03-14T03:33:39;9.50;1.00
1181;DHT22;579;52.046;8.532;2023-03-14T03:36:06;9.50;1.00
1181;DHT22;579;52.046;8.532;2023-03-14T03:38:33;9.50;1.00
1181;DHT22;579;52.046;8.532;2023-03-14T03:41:02;9.50;1.00
1181;DHT22;579;52.046;8.532;2023-03-14T03:43:29;9.50;1.00
1181;DHT22;579;52.046;8.532;2023-03-14T03:45:55;9.70;1.00
1181;DHT22;579;52.046;8.532;2023-03-14T03:48:22;9.50;1.00
1181;DHT22;579;52.046;8.532;2023-03-14T03:55:53;9.40;1.00
1181;DHT22;579;52.046;8.532;2023-03-14T03:58:19;9.30;1.00
1181;DHT22;579;52.046;8.532;2023-03-14T04:00:46;9.40;1.00
1181;DHT22;579;52.046;8.532;2023-03-14T04:03:12;9.40;1.00
1181;DHT22;579;52.046;8.532;2023-03-14T04:05:38;9.40;1.00
1181;DHT22;579;52.046;8.532;2023-03-14T04:08:05;9.40;1.00
1181;DHT22;579;52.046;8.532;2023-03-14T04:10:34;9.40;1.00
1181;DHT22;579;52.046;8.532;2023-03-14T04:15:41;9.40;1.00
1181;DHT22;579;52.046;8.532;2023-03-14T04:18:07;9.30;1.00
1181;DHT22;579;52.046;8.532;2023-03-14T04:20:34;9.40;1.00
1181;DHT22;579;52.046;8.532;2023-03-14T04:23:00;9.30;1.00
1181;DHT22;579;52.046;8.532;2023-03-14T04:25:26;9.40;1.00
1181;DHT22;579;52.046;8.532;2023-03-14T04:27:53;9.60;1.00
1181;DHT22;579;52.046;8.532;2023-03-14T04:30:19;9.70;1.00
1181;DHT22;579;52.046;8.532;2023-03-14T04:32:46;9.60;1.00
1181;DHT22;579;52.046;8.532;2023-03-14T04:35:29;9.60;1.00
1181;DHT22;579;52.046;8.532;2023-03-14T04:37:56;9.50;1.00
1181;DHT22;579;52.046;8.532;2023-03-14T04:40:22;9.60;1.00
1181;DHT22;579;52.046;8.532;2023-03-14T04:42:48;9.80;1.00
1181;DHT22;579;52.046;8.532;2023-03-14T04:45:15;9.60;1.00
1181;DHT22;579;52.046;8.532;2023-03-14T04:47:41;9.80;1.00
1181;DHT22;579;52.046;8.532;2023-03-14T04:50:08;9.70;1.00
1181;DHT22;579;52.046;8.532;2023-03-14T04:52:36;9.70;1.00
1181;DHT22;579;52.046;8.532;2023-03-14T05:00:08;9.70;1.00
1181;DHT22;579;52.046;8.532;2023-03-14T05:02:35;9.70;1.00
1181;DHT22;579;52.046;8.532;2023-03-14T05:05:02;9.80;1.00
1181;DHT22;579;52.046;8.532;2023-03-14T05:07:28;9.80;1.00
1181;DHT22;579;52.046;8.532;2023-03-14T05:09:54;9.90;1.00
1181;DHT22;579;52.046;8.532;2023-03-14T05:12:20;9.90;1.00
1181;DHT22;579;52.046;8.532;2023-03-14T05:14:47;10.00;1.00
1181;DHT22;579;52.046;8.532;2023-03-14T05:17:14;10.00;1.00
1181;DHT22;579;52.046;8.532;2023-03-14T05:24:45;10.00;1.00
1181;DHT22;579;52.046;8.532;2023-03-14T05:27:12;9.90;1.00
1181;DHT22;579;52.046;8.532;2023-03-14T05:29:39;10.10;1.00
1181;DHT22;579;52.046;8.532;2023-03-14T05:32:05;10.20;1.00
1181;DHT22;579;52.046;8.532;2023-03-14T05:34:31;10.10;1.00
1181;DHT22;579;52.046;8.532;2023-03-14T05:36:57;10.20;1.00
1181;DHT22;579;52.046;8.532;2023-03-14T05:39:24;10.20;1.00
1181;DHT22;579;52.046;8.532;2023-03-14T05:41:51;10.30;1.00
1181;DHT22;579;52.046;8.532;2023-03-14T05:49:25;10.40;1.00
1181;DHT22;579;52.046;8.532;2023-03-14T05:51:51;10.20;1.00
1181;DHT22;579;52.046;8.532;2023-03-14T05:54:17;10.30;1.00
1181;DHT22;579;52.046;8.532;2023-03-14T05:56:43;10.50;1.00
1181;DHT22;579;52.046;8.532;2023-03-14T05:59:10;10.40;1.00
1181;DHT22;579;52.046;8.532;2023-03-14T06:01:36;10.30;1.00
1181;DHT22;579;52.046;8.532;2023-03-14T06:04:02;10.00;1.00
1181;DHT22;579;52.046;8.532;2023-03-14T06:09:07;10.00;1.00
1181;DHT22;579;52.046;8.532;2023-03-14T06:11:34;9.90;1.00
1181;DHT22;579;52.046;8.532;2023-03-14T06:14:00;9.90;1.00
1181;DHT22;579;52.046;8.532;2023-03-14T06:16:26;9.80;1.00
1181;DHT22;579;52.046;8.532;2023-03-14T06:18:52;9.80;1.00
1181;DHT22;579;52.046;8.532;2023-03-14T06:21:18;9.90;1.00
1181;DHT22;579;52.046;8.532;2023-03-14T06:23:45;10.00;1.00
1181;DHT22;579;52.046;8.532;2023-03-14T06:26:12;9.80;1.00
1181;DHT22;579;52.046;8.532;2023-03-14T06:33:48;9.70;1.00
1181;DHT22;579;52.046;8.532;2023-03-14T06:36:14;9.50;1.00
1181;DHT22;579;52.046;8.532;2023-03-14T06:38:40;9.50;1.00
1181;DHT22;579;52.046;8.532;2023-03-14T06:41:07;9.40;1.00
1181;DHT22;579;52.046;8.532;2023-03-14T06:43:33;9.30;1.00
1181;DHT22;579;52.046;8.532;2023-03-14T06:46:00;9.20;1.00
1181;DHT22;579;52.046;8.532;2023-03-14T06:48:26;9.20;1.00
1181;DHT22;579;52.046;8.532;2023-03-14T06:50:53;9.30;1.00
1181;DHT22;579;52.046;8.532;2023-03-14T06:58:24;9.50;1.00
1181;DHT22;579;52.046;8.532;2023-03-14T07:00:51;9.40;1.00
1181;DHT22;579;52.046;8.532;2023-03-14T07:03:18;9.30;1.00
1181;DHT22;579;52.046;8.532;2023-03-14T07:05:44;9.40;1.00
1181;DHT22;579;52.046;8.532;2023-03-14T07:08:10;9.50;1.00
1181;DHT22;579;52.046;8.532;2023-03-14T07:10:36;9.80;1.00
1181;DHT22;579;52.046;8.532;2023-03-14T07:13:03;10.00;1.00
1181;DHT22;579;52.046;8.532;2023-03-14T07:15:30;10.00;1.00
1181;DHT22;579;52.046;8.532;2023-03-14T07:23:01;9.80;1.00
1181;DHT22;579;52.046;8.532;2023-03-14T07:25:28;9.80;1.00
1181;DHT22;579;52.046;8.532;2023-03-14T07:27:55;9.70;1.00
1181;DHT22;579;52.046;8.532;2023-03-14T07:30:21;9.80;1.00
1181;DHT22;579;52.046;8.532;2023-03-14T07:32:47;9.80;1.00
1181;DHT22;579;52.046;8.532;2023-03-14T07:35:13;9.90;1.00
1181;DHT22;579;52.046;8.532;2023-03-14T07:37:39;9.90;1.00
1181;DHT22;579;52.046;8.532;2023-03-14T07:43:08;10.00;1.00
1181;DHT22;579;52.046;8.532;2023-03-14T07:45:34;10.30;1.00
1181;DHT22;579;52.046;8.532;2023-03-14T07:48:00;10.30;1.00
1181;DHT22;579;52.046;8.532;2023-03-14T07:50:27;10.30;1.00
1181;DHT22;579;52.046;8.532;2023-03-14T07:52:54;10.30;1.00
1181;DHT22;579;52.046;8.532;2023-03-14T07:55:20;10.10;1.00
1181;DHT22;579;52.046;8.532;2023-03-14T07:57:46;10.10;1.00
1181;DHT22;579;52.046;8.532;2023-03-14T08:03:07;9.80;1.00
1181;DHT22;579;52.046;8.532;2023-03-14T08:05:34;10.10;1.00
1181;DHT22;579;52.046;8.532;2023-03-14T08:08:01;10.10;1.00
1181;DHT22;579;52.046;8.532;2023-03-14T08:10:27;10.30;1.00
1181;DHT22;579;52.046;8.532;2023-03-14T08:12:55;10.30;1.00
1181;DHT22;579;52.046;8.532;2023-03-14T08:15:22;10.20;1.00
1181;DHT22;579;52.046;8.532;2023-03-14T08:17:49;10.20;1.00
1181;DHT22;579;52.046;8.532;2023-03-14T08:20:17;10.10;1.00
1181;DHT22;579;52.046;8.532;2023-03-14T08:25:35;10.40;1.00
1181;DHT22;579;52.046;8.532;2023-03-14T08:28:01;10.10;1.00
1181;DHT22;579;52.046;8.532;2023-03-14T08:30:27;9.80;1.00
1181;DHT22;579;52.046;8.532;2023-03-14T08:32:56;10.00;1.00
1181;DHT22;579;52.046;8.532;2023-03-14T08:35:22;10.00;1.00
1181;DHT22;579;52.046;8.532;2023-03-14T08:37:49;10.00;1.00
1181;DHT22;579;52.046;8.532;2023-03-14T08:40:15;10.00;1.00
1181;DHT22;579;52.046;8.532;2023-03-14T08:45:23;10.30;1.00
1181;DHT22;579;52.046;8.532;2023-03-14T08:47:50;10.30;1.00
1181;DHT22;579;52.046;8.532;2023-03-14T08:50:16;10.30;1.00
1181;DHT22;579;52.046;8.532;2023-03-14T08:52:43;10.30;1.00
1181;DHT22;579;52.046;8.532;2023-03-14T08:55:09;10.90;1.00
1181;DHT22;579;52.046;8.532;2023-03-14T08:57:36;10.60;1.00
1181;DHT22;579;52.046;8.532;2023-03-14T09:00:03;10.60;1.00
1181;DHT22;579;52.046;8.532;2023-03-14T09:02:36;10.40;1.00
1181;DHT22;579;52.046;8.532;2023-03-14T09:10:10;10.50;1.00
1181;DHT22;579;52.046;8.532;2023-03-14T09:12:37;10.50;1.00
1181;DHT22;579;52.046;8.532;2023-03-14T09:15:04;10.40;1.00
1181;DHT22;579;52.046;8.532;2023-03-14T09:17:31;10.30;1.00
1181;DHT22;579;52.046;8.532;2023-03-14T09:19:57;10.50;1.00
1181;DHT22;579;52.046;8.532;2023-03-14T09:22:23;10.70;1.00
1181;DHT22;579;52.046;8.532;2023-03-14T09:24:49;10.70;1.00
1181;DHT22;579;52.046;8.532;2023-03-14T09:31:06;10.80;1.00
1181;DHT22;579;52.046;8.532;2023-03-14T09:33:33;11.40;1.00
1181;DHT22;579;52.046;8.532;2023-03-14T09:35:59;11.30;1.00
1181;DHT22;579;52.046;8.532;2023-03-14T09:38:25;11.60;1.00
1181;DHT22;579;52.046;8.532;2023-03-14T09:40:53;11.20;1.00
1181;DHT22;579;52.046;8.532;2023-03-14T09:43:21;11.30;1.00
1181;DHT22;579;52.046;8.532;2023-03-14T09:45:48;11.40;1.00
1181;DHT22;579;52.046;8.532;2023-03-14T09:48:20;11.70;1.00
1181;DHT22;579;52.046;8.532;2023-03-14T09:55:51;12.30;1.00
1181;DHT22;579;52.046;8.532;2023-03-14T09:58:21;12.20;1.00
1181;DHT22;579;52.046;8.532;2023-03-14T10:00:49;12.20;1.00
1181;DHT22;579;52.046;8.532;2023-03-14T10:03:26;12.00;1.00
1181;DHT22;579;52.046;8.532;2023-03-14T10:05:55;11.90;1.00
1181;DHT22;579;52.046;8.532;2023-03-14T10:08:21;11.50;1.00
1181;DHT22;579;52.046;8.532;2023-03-14T10:10:48;11.40;1.00
1181;DHT22;579;52.046;8.532;2023-03-14T10:13:17;11.50;1.00
1181;DHT22;579;52.046;8.532;2023-03-14T10:20:46;11.80;1.00
1181;DHT22;579;52.046;8.532;2023-03-14T10:23:23;11.80;1.00
1181;DHT22;579;52.046;8.532;2023-03-14T10:26:03;11.70;1.00
1181;DHT22;579;52.046;8.532;2023-03-14T10:28:34;11.70;1.00
1181;DHT22;579;52.046;8.532;2023-03-14T10:31:04;11.60;1.00
1181;DHT22;579;52.046;8.532;2023-03-14T10:33:33;11.70;1.00
1181;DHT22;579;52.046;8.532;2023-03-14T10:36:03;11.60;1.00
1181;DHT22;579;52.046;8.532;2023-03-14T10:41:17;11.70;1.00
1181;DHT22;579;52.046;8.532;2023-03-14T10:43:45;10.60;1.00
1181;DHT22;579;52.046;8.532;2023-03-14T10:46:17;10.60;1.00
1181;DHT22;579;52.046;8.532;2023-03-14T10:48:44;10.50;1.00
1181;DHT22;579;52.046;8.532;2023-03-14T10:51:18;10.30;1.00
1181;DHT22;579;52.046;8.532;2023-03-14T10:53:48;10.30;1.00
1181;DHT22;579;52.046;8.532;2023-03-14T10:56:18;10.20;1.00
1181;DHT22;579;52.046;8.532;2023-03-14T10:58:46;9.90;1.00
1181;DHT22;579;52.046;8.532;2023-03-14T11:06:36;9.40;1.00
1181;DHT22;579;52.046;8.532;2023-03-14T11:09:12;8.90;1.00
1181;DHT22;579;52.046;8.532;2023-03-14T11:11:47;8.40;1.00
1181;DHT22;579;52.046;8.532;2023-03-14T11:14:20;8.10;1.00
1181;DHT22;579;52.046;8.532;2023-03-14T11:16:55;8.00;1.00
1181;DHT22;579;52.046;8.532;2023-03-14T11:19:35;7.80;1.00
1181;DHT22;579;52.046;8.532;2023-03-14T11:22:14;7.80;1.00
1181;DHT22;579;52.046;8.532;2023-03-14T11:29:57;7.60;1.00
1181;DHT22;579;52.046;8.532;2023-03-14T11:32:36;7.20;1.00
1181;DHT22;579;52.046;8.532;2023-03-14T11:35:19;7.00;1.00
1181;DHT22;579;52.046;8.532;2023-03-14T11:37:52;6.70;1.00
1181;DHT22;579;52.046;8.532;2023-03-14T11:40:23;6.60;1.00
1181;DHT22;579;52.046;8.532;2023-03-14T11:42:58;6.50;1.00
1181;DHT22;579;52.046;8.532;2023-03-14T11:45:32;6.50;1.00
1181;DHT22;579;52.046;8.532;2023-03-14T11:48:21;6.60;1.00
1181;DHT22;579;52.046;8.532;2023-03-14T11:50:53;6.70;1.00
1181;DHT22;579;52.046;8.532;2023-03-14T11:53:26;7.10;1.00
1181;DHT22;579;52.046;8.532;2023-03-14T11:56:01;7.30;1.00
1181;DHT22;579;52.046;8.532;2023-03-14T11:58:31;7.10;1.00
1181;DHT22;579;52.046;8.532;2023-03-14T12:01:06;7.20;1.00
1181;DHT22;579;52.046;8.532;2023-03-14T12:08:49;7.10;1.00
1181;DHT22;579;52.046;8.532;2023-03-14T12:11:27;6.70;1.00
1181;DHT22;579;52.046;8.532;2023-03-14T12:13:58;6.60;1.00
1181;DHT22;579;52.046;8.532;2023-03-14T12:16:36;6.70;1.00
1181;DHT22;579;52.046;8.532;2023-03-14T12:19:33;6.90;1.00
1181;DHT22;579;52.046;8.532;2023-03-14T12:22:22;7.00;1.00
1181;DHT22;579;52.046;8.532;2023-03-14T12:28:05;7.20;1.00
1181;DHT22;579;52.046;8.532;2023-03-14T12:30:43;7.30;1.00
1181;DHT22;579;52.046;8.532;2023-03-14T12:33:27;7.50;1.00
1181;DHT22;579;52.046;8.532;2023-03-14T12:36:04;7.80;1.00
1181;DHT22;579;52.046;8.532;2023-03-14T12:38:49;7.80;1.00
1181;DHT22;579;52.046;8.532;2023-03-14T12:41:25;8.00;1.00
1181;DHT22;579;52.046;8.532;2023-03-14T12:48:39;8.20;1.00
1181;DHT22;579;52.046;8.532;2023-03-14T12:51:13;8.60;1.00
1181;DHT22;579;52.046;8.532;2023-03-14T12:57:10;8.90;1.00
1181;DHT22;579;52.046;8.532;2023-03-14T12:59:47;8.80;1.00
1181;DHT22;579;52.046;8.532;2023-03-14T13:02:23;8.80;1.00
1181;DHT22;579;52.046;8.532;2023-03-14T13:09:48;8.60;1.00
1181;DHT22;579;52.046;8.532;2023-03-14T13:12:18;8.70;1.00
1181;DHT22;579;52.046;8.532;2023-03-14T13:14:50;8.80;1.00
1181;DHT22;579;52.046;8.532;2023-03-14T13:17:23;8.60;1.00
1181;DHT22;579;52.046;8.532;2023-03-14T13:19:54;8.60;1.00
1181;DHT22;579;52.046;8.532;2023-03-14T13:22:25;7.80;1.00
1181;DHT22;579;52.046;8.532;2023-03-14T13:27:40;7.60;1.00
1181;DHT22;579;52.046;8.532;2023-03-14T13:30:20;7.20;1.00
1181;DHT22;579;52.046;8.532;2023-03-14T13:32:49;6.70;1.00
1181;DHT22;579;52.046;8.532;2023-03-14T13:35:19;6.90;1.00
1181;DHT22;579;52.046;8.532;2023-03-14T13:37:52;6.80;1.00
1181;DHT22;579;52.046;8.532;2023-03-14T13:40:26;6.80;1.00
1181;DHT22;579;52.046;8.532;2023-03-14T13:47:32;7.30;1.00
1181;DHT22;579;52.046;8.532;2023-03-14T13:49:59;7.80;1.00
1181;DHT22;579;52.046;8.532;2023-03-14T13:52:29;7.60;1.00
1181;DHT22;579;52.046;8.532;2023-03-14T13:54:58;7.80;1.00
1181;DHT22;579;52.046;8.532;2023-03-14T13:57:26;7.80;1.00
1181;DHT22;579;52.046;8.532;2023-03-14T14:00:00;7.80;1.00
1181;DHT22;579;52.046;8.532;2023-03-14T14:02:33;8.00;1.00
1181;DHT22;579;52.046;8.532;2023-03-14T14:07:38;8.00;1.00
1181;DHT22;579;52.046;8.532;2023-03-14T14:10:09;8.10;1.00
1181;DHT22;579;52.046;8.532;2023-03-14T14:12:38;8.40;1.00
1181;DHT22;579;52.046;8.532;2023-03-14T14:15:09;8.60;1.00
1181;DHT22;579;52.046;8.532;2023-03-14T14:17:40;8.80;1.00
1181;DHT22;579;52.046;8.532;2023-03-14T14:20:12;8.70;1.00
1181;DHT22;579;52.046;8.532;2023-03-14T14:27:35;8.80;1.00
1181;DHT22;579;52.046;8.532;2023-03-14T14:30:06;9.60;1.00
1181;DHT22;579;52.046;8.532;2023-03-14T14:32:52;9.70;1.00
1181;DHT22;579;52.046;8.532;2023-03-14T14:35:25;9.50;1.00
1181;DHT22;579;52.046;8.532;2023-03-14T14:37:56;9.40;1.00
1181;DHT22;579;52.046;8.532;2023-03-14T14:40:25;9.40;1.00
1181;DHT22;579;52.046;8.532;2023-03-14T14:45:34;10.20;1.00
1181;DHT22;579;52.046;8.532;2023-03-14T14:48:04;11.60;1.00
1181;DHT22;579;52.046;8.532;2023-03-14T14:50:34;12.10;1.00
1181;DHT22;579;52.046;8.532;2023-03-14T14:53:18;12.60;1.00
1181;DHT22;579;52.046;8.532;2023-03-14T14:55:50;12.50;1.00
1181;DHT22;579;52.046;8.532;2023-03-14T14:58:23;12.20;1.00
1181;DHT22;579;52.046;8.532;2023-03-14T15:05:46;11.50;1.00
1181;DHT22;579;52.046;8.532;2023-03-14T15:08:13;10.40;1.00
1181;DHT22;579;52.046;8.532;2023-03-14T15:10:39;9.80;1.00
1181;DHT22;579;52.046;8.532;2023-03-14T15:13:06;9.70;1.00
1181;DHT22;579;52.046;8.532;2023-03-14T15:15:32;10.10;1.00
1181;DHT22;579;52.046;8.532;2023-03-14T15:18:00;11.40;1.00
1181;DHT22;579;52.046;8.532;2023-03-14T15:20:27;11.80;1.00
1181;DHT22;579;52.046;8.532;2023-03-14T15:25:34;11.00;1.00
1181;DHT22;579;52.046;8.532;2023-03-14T15:28:00;10.40;1.00
1181;DHT22;579;52.046;8.532;2023-03-14T15:30:27;10.50;1.00
1181;DHT22;579;52.046;8.532;2023-03-14T15:32:53;10.60;1.00
1181;DHT22;579;52.046;8.532;2023-03-14T15:35:19;10.80;1.00
1181;DHT22;579;52.046;8.532;2023-03-14T15:37:45;12.90;1.00
1181;DHT22;579;52.046;8.532;2023-03-14T15:40:13;13.60;1.00
1181;DHT22;579;52.046;8.532;2023-03-14T15:45:16;13.30;1.00
1181;DHT22;579;52.046;8.532;2023-03-14T15:47:43;12.40;1.00
1181;DHT22;579;52.046;8.532;2023-03-14T15:50:10;11.50;1.00
1181;DHT22;579;52.046;8.532;2023-03-14T15:52:37;11.20;1.00
1181;DHT22;579;52.046;8.532;2023-03-14T15:55:04;11.10;1.00
1181;DHT22;579;52.046;8.532;2023-03-14T15:57:31;10.90;1.00
1181;DHT22;579;52.046;8.532;2023-03-14T15:59:58;10.60;1.00
1181;DHT22;579;52.046;8.532;2023-03-14T16:05:31;10.20;1.00
1181;DHT22;579;52.046;8.532;2023-03-14T16:07:57;10.00;1.00
1181;DHT22;579;52.046;8.532;2023-03-14T16:10:23;9.90;1.00
1181;DHT22;579;52.046;8.532;2023-03-14T16:12:49;10.00;1.00
1181;DHT22;579;52.046;8.532;2023-03-14T16:15:16;10.00;1.00
1181;DHT22;579;52.046;8.532;2023-03-14T16:17:42;9.90;1.00
1181;DHT22;579;52.046;8.532;2023-03-14T16:20:09;9.80;1.00
1181;DHT22;579;52.046;8.532;2023-03-14T16:26:04;9.70;1.00
1181;DHT22;579;52.046;8.532;2023-03-14T16:28:31;9.30;1.00
1181;DHT22;579;52.046;8.532;2023-03-14T16:31:01;9.20;1.00
1181;DHT22;579;52.046;8.532;2023-03-14T16:33:28;9.10;1.00
1181;DHT22;579;52.046;8.532;2023-03-14T16:35:55;8.80;1.00
1181;DHT22;579;52.046;8.532;2023-03-14T16:38:22;8.80;1.00
1181;DHT22;579;52.046;8.532;2023-03-14T16:46:01;8.60;1.00
1181;DHT22;579;52.046;8.532;2023-03-14T16:48:29;8.60;1.00
1181;DHT22;579;52.046;8.532;2023-03-14T16:50:56;8.60;1.00
1181;DHT22;579;52.046;8.532;2023-03-14T16:53:23;8.60;1.00
1181;DHT22;579;52.046;8.532;2023-03-14T16:55:50;8.30;1.00
1181;DHT22;579;52.046;8.532;2023-03-14T16:58:16;8.10;1.00
1181;DHT22;579;52.046;8.532;2023-03-14T17:00:45;8.00;1.00
1181;DHT22;579;52.046;8.532;2023-03-14T17:05:45;7.80;1.00
1181;DHT22;579;52.046;8.532;2023-03-14T17:08:13;7.70;1.00
1181;DHT22;579;52.046;8.532;2023-03-14T17:10:40;7.50;1.00
1181;DHT22;579;52.046;8.532;2023-03-14T17:13:07;7.20;1.00
1181;DHT22;579;52.046;8.532;2023-03-14T17:15:33;7.10;1.00
1181;DHT22;579;52.046;8.532;2023-03-14T17:18:00;7.20;1.00
1181;DHT22;579;52.046;8.532;2023-03-14T17:20:28;7.30;1.00
1181;DHT22;579;52.046;8.532;2023-03-14T17:25:36;7.30;1.00
1181;DHT22;579;52.046;8.532;2023-03-14T17:28:03;7.50;1.00
1181;DHT22;579;52.046;8.532;2023-03-14T17:30:30;7.70;1.00
1181;DHT22;579;52.046;8.532;2023-03-14T17:32:56;7.70;1.00
1181;DHT22;579;52.046;8.532;2023-03-14T17:35:23;7.60;1.00
1181;DHT22;579;52.046;8.532;2023-03-14T17:37:49;7.60;1.00
1181;DHT22;579;52.046;8.532;2023-03-14T17:40:15;7.30;1.00
1181;DHT22;579;52.046;8.532;2023-03-14T17:46:04;7.80;1.00
1181;DHT22;579;52.046;8.532;2023-03-14T17:48:35;7.50;1.00
1181;DHT22;579;52.046;8.532;2023-03-14T17:51:02;7.40;1.00
1181;DHT22;579;52.046;8.532;2023-03-14T17:53:28;7.40;1.00
1181;DHT22;579;52.046;8.532;2023-03-14T17:55:55;7.30;1.00
1181;DHT22;579;52.046;8.532;2023-03-14T17:58:21;7.40;1.00
1181;DHT22;579;52.046;8.532;2023-03-14T18:00:48;7.20;1.00
1181;DHT22;579;52.046;8.532;2023-03-14T18:06:04;7.00;1.00
1181;DHT22;579;52.046;8.532;2023-03-14T18:08:32;7.10;1.00
1181;DHT22;579;52.046;8.532;2023-03-14T18:10:58;7.30;1.00
1181;DHT22;579;52.046;8.532;2023-03-14T18:13:24;7.10;1.00
1181;DHT22;579;52.046;8.532;2023-03-14T18:15:50;7.10;1.00
1181;DHT22;579;52.046;8.532;2023-03-14T18:18:17;7.20;1.00
1181;DHT22;579;52.046;8.532;2023-03-14T18:20:47;7.20;1.00
1181;DHT22;579;52.046;8.532;2023-03-14T18:26:00;7.20;1.00
1181;DHT22;579;52.046;8.532;2023-03-14T18:28:26;7.30;1.00
1181;DHT22;579;52.046;8.532;2023-03-14T18:30:59;6.90;1.00
1181;DHT22;579;52.046;8.532;2023-03-14T18:33:26;7.30;1.00
1181;DHT22;579;52.046;8.532;2023-03-14T18:35:52;7.10;1.00
1181;DHT22;579;52.046;8.532;2023-03-14T18:38:19;7.30;1.00
1181;DHT22;579;52.046;8.532;2023-03-14T18:40:45;7.30;1.00
1181;DHT22;579;52.046;8.532;2023-03-14T18:45:50;7.40;1.00
1181;DHT22;579;52.046;8.532;2023-03-14T18:48:16;7.30;1.00
1181;DHT22;579;52.046;8.532;2023-03-14T18:50:44;7.10;1.00
1181;DHT22;579;52.046;8.532;2023-03-14T18:53:10;6.90;1.00
1181;DHT22;579;52.046;8.532;2023-03-14T18:55:36;6.90;1.00
1181;DHT22;579;52.046;8.532;2023-03-14T18:58:03;6.80;1.00
1181;DHT22;579;52.046;8.532;2023-03-14T19:00:29;7.00;1.00
1181;DHT22;579;52.046;8.532;2023-03-14T19:05:35;6.60;1.00
1181;DHT22;579;52.046;8.532;2023-03-14T19:08:03;6.60;1.00
1181;DHT22;579;52.046;8.532;2023-03-14T19:10:29;6.90;1.00
1181;DHT22;579;52.046;8.532;2023-03-14T19:12:57;6.80;1.00
1181;DHT22;579;52.046;8.532;2023-03-14T19:15:23;6.60;1.00
1181;DHT22;579;52.046;8.532;2023-03-14T19:17:50;6.70;1.00
1181;DHT22;579;52.046;8.532;2023-03-14T19:20:16;6.70;1.00
1181;DHT22;579;52.046;8.532;2023-03-14T19:22:43;6.50;1.00
1181;DHT22;579;52.046;8.532;2023-03-14T19:30:16;6.60;1.00
1181;DHT22;579;52.046;8.532;2023-03-14T19:32:42;6.50;1.00
1181;DHT22;579;52.046;8.532;2023-03-14T19:35:09;6.30;1.00
1181;DHT22;579;52.046;8.532;2023-03-14T19:37:35;6.30;1.00
1181;DHT22;579;52.046;8.532;2023-03-14T19:40:01;6.40;1.00
1181;DHT22;579;52.046;8.532;2023-03-14T19:42:29;6.40;1.00
1181;DHT22;579;52.046;8.532;2023-03-14T19:44:55;6.30;1.00
1181;DHT22;579;52.046;8.532;2023-03-14T19:47:22;6.40;1.00
1181;DHT22;579;52.046;8.532;2023-03-14T19:54:53;6.80;1.00
1181;DHT22;579;52.046;8.532;2023-03-14T19:57:19;6.70;1.00
1181;DHT22;579;52.046;8.532;2023-03-14T19:59:46;6.80;1.00
1181;DHT22;579;52.046;8.532;2023-03-14T20:02:13;6.80;1.00
1181;DHT22;579;52.046;8.532;2023-03-14T20:04:39;6.80;1.00
1181;DHT22;579;52.046;8.532;2023-03-14T20:07:08;6.60;1.00
1181;DHT22;579;52.046;8.532;2023-03-14T20:09:34;6.30;1.00
1181;DHT22;579;52.046;8.532;2023-03-14T20:12:01;6.50;1.00
1181;DHT22;579;52.046;8.532;2023-03-14T20:19:33;6.50;1.00
1181;DHT22;579;52.046;8.532;2023-03-14T20:22:00;6.90;1.00
1181;DHT22;579;52.046;8.532;2023-03-14T20:24:26;6.90;1.00
1181;DHT22;579;52.046;8.532;2023-03-14T20:26:52;7.20;1.00
1181;DHT22;579;52.046;8.532;2023-03-14T20:29:19;7.40;1.00
1181;DHT22;579;52.046;8.532;2023-03-14T20:31:45;7.30;1.00
1181;DHT22;579;52.046;8.532;2023-03-14T20:34:11;7.30;1.00
1181;DHT22;579;52.046;8.532;2023-03-14T20:36:38;6.60;1.00
1181;DHT22;579;52.046;8.532;2023-03-14T20:44:10;6.30;1.00